Time;durP1;ratioP1;P1;durP2;ratioP2;P2;SDS_P1;SDS_P2;PMS_P1;PMS_P2;Temp;Humidity;BMP_temperature;BMP_pressure;BME280_temperature;BME280_humidity;BME280_pressure;Samples;Min_cycle;Max_cycle;Signal;HPM_P1;HPM_P2
2022/11/22 00:01:10;;;;;;;7.20;5.17;;;;;;;-0.11;85.46;99912.56;6066431;29;20229;-82
2022/11/22 00:04:31;;;;;;;12.77;6.67;;;;;;;0.08;84.54;99914.06;6072690;29;20236;-81
2022/11/22 00:07:52;;;;;;;8.77;6.57;;;;;;;0.15;84.01;99907.47;6056420;29;20229;-80
2022/11/22 00:11:13;;;;;;;9.33;6.30;;;;;;;0.18;84.23;99900.16;6063273;29;20623;-81
2022/11/22 00:14:36;;;;;;;7.47;5.90;;;;;;;-0.06;85.35;99899.88;6062777;29;20233;-79
2022/11/22 00:17:57;;;;;;;8.87;6.83;;;;;;;0.15;84.46;99902.16;6059510;29;20237;-80
2022/11/22 00:21:19;;;;;;;10.73;6.63;;;;;;;0.00;84.63;99915.38;6082196;29;20515;-79
2022/11/22 00:24:40;;;;;;;10.60;5.90;;;;;;;0.10;84.51;99917.47;6071522;29;20232;-81
2022/11/22 00:28:01;;;;;;;13.33;7.93;;;;;;;0.16;84.09;99920.59;6052478;29;20260;-80
2022/11/22 00:31:23;;;;;;;11.80;7.03;;;;;;;-0.03;84.99;99918.22;6075488;29;20793;-79
2022/11/22 00:34:44;;;;;;;9.87;7.33;;;;;;;0.12;84.89;99920.88;6069219;29;20226;-79
2022/11/22 00:38:05;;;;;;;7.30;6.40;;;;;;;0.12;84.13;99912.94;6059775;29;20605;-79
2022/11/22 00:41:26;;;;;;;12.43;8.70;;;;;;;0.03;84.36;99910.84;6068857;29;20228;-79
2022/11/22 00:44:47;;;;;;;11.10;7.53;;;;;;;0.14;83.66;99917.19;6067961;29;20236;-79
2022/11/22 00:48:09;;;;;;;10.27;8.13;;;;;;;0.13;84.15;99914.63;6061700;29;20319;-79
2022/11/22 00:51:30;;;;;;;10.77;8.13;;;;;;;-0.09;84.95;99905.38;6073898;29;20238;-79
2022/11/22 00:54:51;;;;;;;11.50;6.73;;;;;;;0.01;84.63;99900.34;6076129;29;20327;-80
2022/11/22 00:58:12;;;;;;;9.53;5.83;;;;;;;-0.03;85.21;99905.00;6060433;29;20276;-79
2022/11/22 01:01:33;;;;;;;12.90;7.70;;;;;;;-0.09;85.28;99900.06;6068876;29;20226;-80
2022/11/22 01:04:55;;;;;;;12.17;8.30;;;;;;;0.11;85.03;99898.84;6073309;29;20273;-81
2022/11/22 01:08:15;;;;;;;15.17;8.20;;;;;;;0.19;84.96;99880.66;6070483;29;20248;-81
2022/11/22 01:11:37;;;;;;;11.53;7.67;;;;;;;0.13;84.77;99885.47;6073697;29;20241;-80
2022/11/22 01:14:57;;;;;;;12.63;8.23;;;;;;;-0.16;85.80;99895.22;6077443;29;20236;-79
2022/11/22 01:18:18;;;;;;;16.80;9.03;;;;;;;0.05;85.45;99896.56;6066220;29;20224;-79
2022/11/22 01:21:40;;;;;;;12.10;7.47;;;;;;;0.07;85.15;99894.66;6078451;29;20237;-79
2022/11/22 01:25:01;;;;;;;12.03;6.53;;;;;;;0.00;85.60;99872.19;6069050;29;20238;-79
2022/11/22 01:28:22;;;;;;;13.33;8.30;;;;;;;0.24;85.09;99865.34;6067246;29;20367;-78
2022/11/22 01:31:43;;;;;;;11.60;8.03;;;;;;;0.31;84.08;99863.16;6075418;29;20233;-79
2022/11/22 01:35:04;;;;;;;12.97;7.97;;;;;;;0.21;84.29;99860.22;6078416;29;20217;-78
2022/11/22 01:38:27;;;;;;;12.67;8.10;;;;;;;0.09;85.17;99861.00;6072489;29;20312;-78
2022/11/22 01:41:48;;;;;;;13.83;9.50;;;;;;;0.18;84.89;99867.50;6079283;29;20735;-77
2022/11/22 01:45:42;;;;;;;9.70;5.93;;;;;;;0.07;84.99;99877.91;6067566;29;20236;-78
2022/11/22 01:49:10;;;;;;;10.40;6.83;;;;;;;0.10;85.58;99877.75;6056427;29;20236;-77
2022/11/22 01:52:33;;;;;;;9.60;6.83;;;;;;;0.16;85.63;99880.00;6062431;29;20233;-78
2022/11/22 01:55:59;;;;;;;10.00;7.30;;;;;;;0.09;85.43;99871.59;6070875;29;20225;-77
2022/11/22 01:59:22;;;;;;;11.67;7.20;;;;;;;-0.17;86.85;99875.81;6080193;29;20315;-77
2022/11/22 02:02:46;;;;;;;12.10;7.33;;;;;;;-0.06;86.50;99883.97;6052826;29;20217;-77
2022/11/22 02:06:07;;;;;;;15.50;8.67;;;;;;;0.09;85.98;99873.38;6080329;29;20225;-77
2022/11/22 02:09:29;;;;;;;14.63;8.43;;;;;;;0.24;85.69;99867.97;6070388;29;20236;-77
2022/11/22 02:12:53;;;;;;;18.07;9.77;;;;;;;-0.04;86.14;99858.25;6064930;29;20237;-77
2022/11/22 02:16:14;;;;;;;8.83;7.17;;;;;;;0.00;86.63;99850.97;6079725;29;20233;-77
2022/11/22 02:19:42;;;;;;;14.53;9.43;;;;;;;-0.10;87.55;99837.44;6075212;29;20224;-80
2022/11/22 02:23:11;;;;;;;8.30;6.87;;;;;;;0.03;86.79;99834.88;6059309;29;20335;-80
2022/11/22 02:26:34;;;;;;;12.40;8.73;;;;;;;-0.09;86.84;99836.50;6081257;29;20614;-80
2022/11/22 02:29:54;;;;;;;13.47;7.97;;;;;;;0.08;86.59;99837.25;6065990;29;20244;-81
2022/11/22 02:33:15;;;;;;;11.63;7.47;;;;;;;0.10;87.04;99835.34;6065786;29;20232;-81
2022/11/22 02:36:41;;;;;;;13.70;8.73;;;;;;;0.03;86.75;99834.88;6076323;29;20257;-82
2022/11/22 02:40:07;;;;;;;13.67;8.33;;;;;;;0.02;86.79;99824.41;6071301;29;20237;-80
2022/11/22 02:43:32;;;;;;;13.63;9.63;;;;;;;-0.01;86.99;99823.63;6067341;29;20615;-80
2022/11/22 02:46:55;;;;;;;9.07;8.17;;;;;;;0.16;86.92;99817.28;6067878;29;20244;-80
2022/11/22 02:50:16;;;;;;;12.37;7.67;;;;;;;0.31;85.91;99810.16;6074036;29;20233;-79
2022/11/22 02:53:37;;;;;;;12.17;8.13;;;;;;;0.09;86.52;99802.72;6057639;29;20674;-79
2022/11/22 02:56:58;;;;;;;11.07;7.47;;;;;;;0.26;86.44;99797.19;6071337;29;20226;-80
2022/11/22 03:00:22;;;;;;;9.10;6.10;;;;;;;0.14;85.90;99799.78;6069379;29;20249;-80
2022/11/22 03:03:43;;;;;;;15.03;8.63;;;;;;;0.18;86.27;99799.47;6065875;29;20216;-80
2022/11/22 03:07:04;;;;;;;6.93;6.07;;;;;;;0.03;87.06;99787.22;6063895;29;20577;-80
2022/11/22 03:10:25;;;;;;;12.80;7.83;;;;;;;0.16;86.85;99797.88;6074855;29;20236;-80
2022/11/22 03:13:46;;;;;;;12.57;8.17;;;;;;;0.20;86.47;99779.03;6066013;29;20232;-80
2022/11/22 03:17:08;;;;;;;11.90;8.97;;;;;;;0.29;85.97;99769.66;6069598;29;20309;-80
2022/11/22 03:20:30;;;;;;;12.73;9.00;;;;;;;0.10;86.09;99769.13;6073386;29;20789;-80
2022/11/22 03:23:51;;;;;;;11.63;8.27;;;;;;;0.07;86.79;99779.91;6068673;29;20240;-80
2022/11/22 03:27:12;;;;;;;12.67;8.00;;;;;;;0.04;86.99;99799.53;6068420;29;20510;-79
2022/11/22 03:30:33;;;;;;;10.67;7.03;;;;;;;0.12;87.19;99799.88;6066792;29;20241;-80
2022/11/22 03:33:55;;;;;;;10.67;8.13;;;;;;;0.21;86.63;99788.66;6067196;29;20243;-79
2022/11/22 03:37:16;;;;;;;11.20;7.67;;;;;;;0.24;86.93;99777.91;6077103;29;20226;-79
2022/11/22 03:40:37;;;;;;;10.50;7.67;;;;;;;0.19;86.71;99781.81;6074304;29;20325;-79
2022/11/22 03:43:58;;;;;;;10.10;7.83;;;;;;;0.17;86.93;99786.34;6063489;29;20237;-80
2022/11/22 03:47:19;;;;;;;11.47;7.97;;;;;;;0.15;86.78;99783.78;6061899;29;20234;-81
2022/11/22 03:50:42;;;;;;;12.00;7.60;;;;;;;0.34;87.29;99768.41;6046230;29;20240;-80
2022/11/22 03:54:03;;;;;;;11.93;8.10;;;;;;;0.38;86.43;99759.28;6066407;29;20275;-79
2022/11/22 03:57:24;;;;;;;14.53;7.93;;;;;;;0.09;87.33;99778.00;6055878;29;20701;-80
2022/11/22 04:00:45;;;;;;;9.97;7.23;;;;;;;-0.04;87.68;99788.53;6066180;29;20233;-79
2022/11/22 04:04:06;;;;;;;10.77;8.00;;;;;;;0.06;87.85;99779.06;6078409;29;20348;-79
2022/11/22 04:07:28;;;;;;;13.47;7.97;;;;;;;0.10;87.60;99769.13;6068299;29;20252;-79
2022/11/22 04:10:50;;;;;;;14.57;9.80;;;;;;;0.18;87.83;99759.75;6067962;29;20514;-79
2022/11/22 04:17:49;;;;;;;12.13;8.63;;;;;;;0.22;87.67;99776.28;6059463;29;20233;-81
2022/11/22 04:28:28;;;;;;;13.40;9.07;;;;;;;0.05;87.61;99769.41;6063452;29;20236;-80
2022/11/22 04:35:28;;;;;;;8.80;7.03;;;;;;;0.20;88.44;99762.28;6074973;29;20233;-80
2022/11/22 04:38:49;;;;;;;9.80;6.60;;;;;;;0.29;87.96;99753.75;6067682;29;20626;-80
2022/11/22 04:45:50;;;;;;;9.83;7.13;;;;;;;0.48;87.22;99741.84;6062344;29;20494;-79
2022/11/22 04:49:11;;;;;;;12.70;9.13;;;;;;;0.47;87.42;99741.94;6071987;29;20612;-79
2022/11/22 04:56:13;;;;;;;14.10;8.10;;;;;;;0.44;88.12;99742.16;6067141;29;20228;-79
2022/11/22 04:59:35;;;;;;;11.90;7.90;;;;;;;0.45;88.09;99747.34;6074523;29;20236;-79
2022/11/22 05:02:57;;;;;;;11.37;7.90;;;;;;;0.58;87.10;99736.78;6060273;29;20499;-80
2022/11/22 05:06:18;;;;;;;11.60;8.53;;;;;;;0.58;87.74;99734.13;6079122;29;20316;-80
2022/11/22 05:09:39;;;;;;;8.80;7.07;;;;;;;0.45;87.88;99734.09;6071141;29;20264;-79
2022/11/22 05:13:00;;;;;;;18.10;9.63;;;;;;;0.39;88.28;99736.31;6064130;29;20257;-79
2022/11/22 05:16:22;;;;;;;12.90;8.20;;;;;;;0.40;88.73;99748.59;6074650;29;20607;-81
2022/11/22 05:19:43;;;;;;;9.80;7.57;;;;;;;0.42;88.42;99744.88;6078041;29;20224;-79
2022/11/22 05:26:42;;;;;;;13.03;8.87;;;;;;;0.66;87.53;99745.09;6076880;29;20230;-79
2022/11/22 05:30:04;;;;;;;13.10;8.83;;;;;;;0.41;88.40;99748.50;6080138;29;20889;-79
2022/11/22 05:33:27;;;;;;;13.60;8.73;;;;;;;0.54;88.63;99743.25;6075165;29;20341;-80
2022/11/22 05:36:48;;;;;;;10.03;7.20;;;;;;;0.64;88.48;99744.34;6050867;29;1064004;-80
2022/11/22 05:40:11;;;;;;;10.23;7.17;;;;;;;0.71;87.78;99742.94;6096210;29;20228;-80
2022/11/22 05:43:32;;;;;;;11.40;7.23;;;;;;;0.66;88.42;99747.72;6088911;29;20236;-79
2022/11/22 05:46:53;;;;;;;13.03;8.43;;;;;;;0.74;87.96;99740.13;6081582;29;20238;-78
2022/11/22 05:50:15;;;;;;;13.23;7.53;;;;;;;0.80;87.70;99734.38;6066897;29;20237;-80
2022/11/22 05:53:50;;;;;;;11.27;7.63;;;;;;;0.66;88.61;99745.94;6064855;29;20236;-83
2022/11/22 05:57:11;;;;;;;12.77;8.83;;;;;;;0.58;88.81;99748.25;6077376;29;20230;-80
2022/11/22 06:00:32;;;;;;;11.10;7.60;;;;;;;0.61;88.95;99745.38;6065650;29;20241;-80
2022/11/22 06:03:56;;;;;;;9.93;7.43;;;;;;;0.67;88.58;99744.13;6063481;29;20229;-79
2022/11/22 06:07:19;;;;;;;9.97;7.50;;;;;;;0.74;88.28;99740.13;6072240;29;20237;-80
2022/11/22 06:10:40;;;;;;;11.67;8.33;;;;;;;0.76;88.90;99738.22;6057223;29;20722;-78
2022/11/22 06:14:03;;;;;;;12.07;7.37;;;;;;;0.73;88.54;99746.38;6072739;29;20308;-77
2022/11/22 06:17:23;;;;;;;12.57;8.60;;;;;;;0.76;89.39;99754.97;6061008;29;20319;-79
2022/11/22 06:20:44;;;;;;;16.47;9.30;;;;;;;0.87;89.16;99759.56;6064200;29;20233;-78
2022/11/22 06:24:08;;;;;;;13.17;7.60;;;;;;;0.72;90.22;99757.94;6070673;29;20580;-79
2022/11/22 06:27:28;;;;;;;12.30;8.50;;;;;;;0.85;89.49;99758.81;6070729;29;20519;-79
2022/11/22 06:30:49;;;;;;;9.23;7.50;;;;;;;0.84;90.00;99767.72;6066382;29;20242;-77
2022/11/22 06:34:14;;;;;;;13.17;8.77;;;;;;;0.77;90.35;99772.56;6068117;29;20260;-79
2022/11/22 06:37:35;;;;;;;12.33;8.73;;;;;;;0.82;90.19;99781.09;6067623;29;20507;-80
2022/11/22 06:41:00;;;;;;;17.40;11.27;;;;;;;0.80;90.25;99774.19;6063164;29;20241;-78
2022/11/22 06:44:21;;;;;;;11.27;8.47;;;;;;;2.05;96.58;99765.38;6059227;29;20236;-76
2022/11/22 06:47:42;;;;;;;15.50;8.53;;;;;;;2.77;94.66;99766.28;6050191;29;20233;-79
2022/11/22 06:51:05;;;;;;;12.53;8.20;;;;;;;2.69;90.71;99768.66;6078139;29;20237;-80
2022/11/22 06:54:26;;;;;;;10.07;7.83;;;;;;;1.84;87.17;99766.03;6068788;29;20236;-79
2022/11/22 06:57:50;;;;;;;12.67;8.73;;;;;;;1.68;87.73;99766.28;6064333;29;20332;-78
2022/11/22 07:01:13;;;;;;;9.50;7.60;;;;;;;1.49;88.24;99768.53;6076162;29;20229;-78
2022/11/22 07:04:34;;;;;;;12.50;8.47;;;;;;;1.34;88.92;99772.25;6069379;29;20736;-73
2022/11/22 07:07:56;;;;;;;15.17;11.00;;;;;;;1.36;89.06;99765.88;6047022;29;20248;-76
2022/11/22 07:11:19;;;;;;;9.47;8.00;;;;;;;1.14;89.12;99772.75;6065775;29;20229;-74
2022/11/22 07:14:41;;;;;;;13.00;9.33;;;;;;;1.07;89.99;99761.72;6062773;29;20240;-76
2022/11/22 07:18:02;;;;;;;11.53;7.67;;;;;;;1.01;90.51;99766.56;6069298;29;21254;-74
2022/11/22 07:21:24;;;;;;;13.17;10.23;;;;;;;0.98;90.75;99762.31;6075316;29;21860;-74
2022/11/22 07:24:45;;;;;;;14.17;9.73;;;;;;;1.15;90.04;99770.00;6066170;29;20789;-77
2022/11/22 07:28:05;;;;;;;15.60;9.43;;;;;;;1.13;89.93;99766.59;6058065;29;20263;-79
2022/11/22 07:31:28;;;;;;;14.23;9.27;;;;;;;1.12;90.62;99759.59;6063237;29;20233;-80
2022/11/22 07:34:57;;;;;;;16.47;9.87;;;;;;;1.05;90.08;99760.09;6060059;29;20237;-88
2022/11/22 07:38:23;;;;;;;13.43;9.10;;;;;;;1.05;91.11;99755.66;6064105;29;20240;-85
2022/11/22 07:41:45;;;;;;;9.57;6.70;;;;;;;1.09;90.35;99758.94;6058173;29;20260;-85
2022/11/22 07:45:07;;;;;;;11.50;7.27;;;;;;;1.14;90.10;99759.50;6064020;29;20795;-82
2022/11/22 07:48:29;;;;;;;9.83;7.40;;;;;;;1.10;90.26;99761.50;6044114;29;20236;-77
2022/11/22 07:51:52;;;;;;;11.00;7.83;;;;;;;1.01;89.96;99762.13;6058466;29;20321;-77
2022/11/22 07:55:12;;;;;;;13.37;8.37;;;;;;;1.11;89.88;99755.25;6059883;29;20991;-76
2022/11/22 07:58:34;;;;;;;12.87;8.57;;;;;;;1.00;90.66;99757.75;6046792;29;20356;-84
2022/11/22 08:01:56;;;;;;;11.87;7.60;;;;;;;1.03;90.61;99772.63;6049437;29;20237;-79
2022/11/22 08:05:19;;;;;;;15.13;10.80;;;;;;;1.12;90.50;99761.41;6056406;29;20229;-74
2022/11/22 08:08:40;;;;;;;9.17;8.13;;;;;;;1.08;90.53;99762.56;6062634;29;20926;-81
2022/11/22 08:12:02;;;;;;;11.17;8.30;;;;;;;1.01;90.96;99770.09;6064702;29;20233;-74
2022/11/22 08:15:23;;;;;;;15.40;9.33;;;;;;;1.17;90.17;99781.34;6052304;29;20232;-76
2022/11/22 08:18:47;;;;;;;11.53;8.50;;;;;;;1.03;90.55;99770.84;6060158;29;20243;-76
2022/11/22 08:22:09;;;;;;;14.17;8.40;;;;;;;1.05;90.67;99776.03;6046463;29;20248;-73
2022/11/22 08:25:31;;;;;;;11.33;8.03;;;;;;;1.05;90.41;99786.63;6072195;29;20228;-77
2022/11/22 08:28:52;;;;;;;14.10;8.60;;;;;;;0.90;91.47;99793.81;6067245;29;20236;-75
2022/11/22 08:32:13;;;;;;;11.17;7.17;;;;;;;0.94;91.31;99795.31;6054994;29;20233;-74
2022/11/22 08:35:34;;;;;;;15.30;9.23;;;;;;;0.79;91.97;99793.72;6062743;29;20256;-74
2022/11/22 08:38:57;;;;;;;10.57;9.27;;;;;;;0.88;91.43;99808.16;6051907;29;20240;-73
2022/11/22 08:42:18;;;;;;;10.47;9.07;;;;;;;0.95;91.50;99796.16;6056771;29;20237;-75
2022/11/22 08:45:38;;;;;;;11.37;7.83;;;;;;;1.06;91.24;99797.16;6058368;29;20237;-74
2022/11/22 08:49:02;;;;;;;12.70;8.27;;;;;;;0.95;91.11;99794.38;6057821;29;20236;-83
2022/11/22 08:52:23;;;;;;;12.13;9.27;;;;;;;1.04;91.23;99801.72;6053937;29;20236;-72
2022/11/22 08:55:45;;;;;;;12.77;8.57;;;;;;;1.23;92.04;99804.00;6050798;29;20237;-78
2022/11/22 08:59:07;;;;;;;11.33;8.53;;;;;;;1.03;91.61;99794.72;6052812;29;20240;-76
2022/11/22 09:02:28;;;;;;;12.90;8.77;;;;;;;1.15;91.54;99801.84;6056744;29;20225;-77
2022/11/22 09:05:49;;;;;;;15.07;8.53;;;;;;;1.15;90.73;99807.16;6057823;29;20233;-76
2022/11/22 09:09:10;;;;;;;10.07;8.57;;;;;;;1.14;91.00;99810.78;6054241;29;20611;-76
2022/11/22 09:12:32;;;;;;;14.63;8.50;;;;;;;1.17;91.53;99817.69;6047671;29;20237;-76
2022/11/22 09:15:53;;;;;;;13.63;9.90;;;;;;;1.15;91.26;99807.16;6053953;29;20229;-76
2022/11/22 09:19:14;;;;;;;13.77;8.27;;;;;;;1.17;91.02;99818.50;6061772;29;20240;-76
2022/11/22 09:22:35;;;;;;;12.37;8.60;;;;;;;1.27;91.19;99822.22;6059683;29;20727;-78
2022/11/22 09:25:58;;;;;;;11.53;8.40;;;;;;;1.22;91.09;99823.50;6054518;29;20635;-78
2022/11/22 09:29:20;;;;;;;13.87;8.83;;;;;;;1.20;90.99;99815.66;6058224;29;20232;-73
2022/11/22 09:32:43;;;;;;;12.90;8.87;;;;;;;1.32;90.99;99827.22;6036325;29;20241;-73
2022/11/22 09:36:06;;;;;;;10.47;8.00;;;;;;;1.30;91.04;99830.00;6047466;29;20257;-81
2022/11/22 09:39:27;;;;;;;15.00;9.40;;;;;;;1.49;91.57;99834.91;6060748;29;20228;-76
2022/11/22 09:43:08;;;;;;;10.03;7.63;;;;;;;1.25;91.73;99842.72;6046029;29;20268;-75
2022/11/22 09:46:41;;;;;;;14.80;10.87;;;;;;;1.31;91.19;99830.84;6060411;29;20228;-78
2022/11/22 09:50:15;;;;;;;12.17;8.20;;;;;;;1.40;91.31;99830.22;6053940;29;20252;-72
2022/11/22 09:53:40;;;;;;;10.60;8.67;;;;;;;1.34;91.29;99839.47;6046933;29;20240;-76
2022/11/22 09:57:04;;;;;;;14.43;10.23;;;;;;;1.43;91.41;99843.28;6051128;29;20221;-76
2022/11/22 10:00:27;;;;;;;9.97;8.27;;;;;;;1.60;91.24;99846.50;6051796;29;20248;-75
2022/11/22 10:03:54;;;;;;;12.17;8.87;;;;;;;1.47;91.33;99845.66;6056448;29;20232;-75
2022/11/22 10:07:21;;;;;;;12.53;9.27;;;;;;;1.43;91.53;99838.00;6052278;29;20319;-74
2022/11/22 10:10:43;;;;;;;9.73;8.00;;;;;;;1.45;91.90;99828.09;6047868;29;20655;-70
2022/11/22 10:14:14;;;;;;;14.47;9.00;;;;;;;1.48;92.13;99830.56;6059698;29;20868;-74
2022/11/22 10:17:47;;;;;;;16.70;9.77;;;;;;;1.52;91.98;99832.88;6061502;29;20248;-78
2022/11/22 10:21:12;;;;;;;12.57;9.13;;;;;;;1.45;92.17;99836.06;6068120;29;20240;-74
2022/11/22 10:24:33;;;;;;;10.67;8.17;;;;;;;1.43;93.01;99841.50;6069112;29;20619;-82
2022/11/22 10:28:00;;;;;;;15.87;10.20;;;;;;;1.55;92.68;99837.13;6049311;29;20233;-82
2022/11/22 10:31:27;;;;;;;13.17;10.10;;;;;;;1.56;92.36;99837.03;6064985;29;20501;-79
2022/11/22 10:35:06;;;;;;;11.70;8.53;;;;;;;1.53;92.84;99837.25;6065816;29;20244;-75
2022/11/22 10:38:45;;;;;;;14.53;8.50;;;;;;;1.49;92.83;99851.69;6049709;29;20253;-76
2022/11/22 10:42:27;;;;;;;7.93;6.10;;;;;;;1.53;93.18;99845.22;6062999;29;20267;-78
2022/11/22 10:45:55;;;;;;;11.30;8.60;;;;;;;1.48;93.21;99849.16;6042176;29;20236;-77
2022/11/22 10:49:22;;;;;;;14.60;10.13;;;;;;;1.74;92.66;99852.66;6053914;29;20252;-81
2022/11/22 10:52:53;;;;;;;13.40;8.97;;;;;;;1.58;92.94;99844.91;6051919;29;20615;-75
2022/11/22 10:56:24;;;;;;;7.93;7.13;;;;;;;1.65;92.89;99853.31;6067402;29;20240;-76
2022/11/22 11:00:00;;;;;;;14.47;9.40;;;;;;;1.51;93.40;99838.31;6056392;29;20232;-75
2022/11/22 11:03:31;;;;;;;10.47;7.87;;;;;;;1.61;93.02;99836.72;6046270;29;20244;-81
2022/11/22 11:06:57;;;;;;;13.50;8.47;;;;;;;1.75;93.30;99836.63;6050750;29;20225;-80
2022/11/22 11:10:21;;;;;;;10.33;8.23;;;;;;;1.72;93.08;99847.47;6057513;29;20441;-82
2022/11/22 11:13:46;;;;;;;12.80;9.50;;;;;;;1.66;93.05;99845.22;6048156;29;20237;-80
2022/11/22 11:17:07;;;;;;;9.87;8.53;;;;;;;1.74;92.96;99842.03;6055036;29;21195;-80
2022/11/22 11:20:35;;;;;;;15.03;10.53;;;;;;;1.76;92.47;99834.81;6056039;29;20623;-81
2022/11/22 11:23:56;;;;;;;12.70;7.90;;;;;;;1.73;93.15;99845.66;6059856;29;20237;-83
2022/11/22 11:27:19;;;;;;;17.83;9.97;;;;;;;1.63;93.11;99854.25;6040228;29;20229;-85
2022/11/22 11:30:46;;;;;;;17.37;8.90;;;;;;;1.81;93.35;99852.16;6057147;29;20717;-84
2022/11/22 11:34:20;;;;;;;12.53;8.30;;;;;;;1.81;93.37;99853.94;6059156;29;20894;-83
2022/11/22 11:37:41;;;;;;;11.97;8.70;;;;;;;1.88;93.09;99850.75;6055297;29;20229;-85
2022/11/22 11:41:33;;;;;;;15.10;9.90;;;;;;;2.06;92.84;99835.34;6058246;29;20348;-82
2022/11/22 11:44:55;;;;;;;13.87;9.47;;;;;;;1.96;92.85;99842.25;6046666;29;20649;-82
2022/11/22 11:48:39;;;;;;;11.87;9.40;;;;;;;1.88;93.05;99840.13;6048080;29;20257;-81
2022/11/22 11:52:03;;;;;;;15.57;11.13;;;;;;;2.04;92.99;99837.25;6061545;29;20234;-81
2022/11/22 11:55:30;;;;;;;11.83;8.47;;;;;;;1.99;93.32;99826.06;6059425;29;20237;-82
2022/11/22 11:58:53;;;;;;;13.43;8.37;;;;;;;2.07;92.97;99826.38;6051615;29;22186;-84
2022/11/22 12:02:18;;;;;;;13.73;9.30;;;;;;;2.01;93.09;99829.47;6065721;29;20229;-80
2022/11/22 12:05:40;;;;;;;13.43;9.07;;;;;;;2.18;93.06;99816.69;6051144;29;20737;-83
2022/11/22 12:09:12;;;;;;;16.47;8.80;;;;;;;2.10;93.02;99826.19;6055428;29;20591;-75
2022/11/22 12:12:42;;;;;;;10.80;8.13;;;;;;;1.99;93.24;99828.72;6051193;29;20311;-81
2022/11/22 12:16:18;;;;;;;14.63;8.87;;;;;;;2.03;93.58;99830.22;6047224;29;20236;-76
2022/11/22 12:19:50;;;;;;;13.00;8.67;;;;;;;2.02;93.66;99831.19;6048024;29;20237;-76
2022/11/22 12:23:21;;;;;;;10.40;8.60;;;;;;;2.20;93.58;99822.75;6045172;29;20232;-78
2022/11/22 12:26:42;;;;;;;14.33;9.10;;;;;;;2.36;92.91;99819.84;6061634;29;20240;-73
2022/11/22 12:30:05;;;;;;;15.67;9.70;;;;;;;2.32;92.61;99819.22;6046489;29;20237;-72
2022/11/22 12:33:33;;;;;;;14.07;8.23;;;;;;;2.46;92.51;99820.91;6053833;29;20236;-77
2022/11/22 12:37:00;;;;;;;10.50;7.53;;;;;;;2.33;92.73;99820.06;6066882;29;20637;-79
2022/11/22 12:40:26;;;;;;;12.80;8.67;;;;;;;2.43;92.31;99821.09;6063101;29;21650;-83
2022/11/22 12:43:53;;;;;;;9.43;7.20;;;;;;;2.58;92.33;99819.13;6058855;29;21658;-76
2022/11/22 12:47:19;;;;;;;14.77;8.50;;;;;;;2.74;91.45;99815.25;6056056;29;20281;-84
2022/11/22 12:50:44;;;;;;;13.03;9.07;;;;;;;2.48;91.56;99826.94;6047937;29;20237;-75
2022/11/22 12:54:10;;;;;;;17.73;8.97;;;;;;;2.64;91.87;99816.88;6053973;29;20339;-75
2022/11/22 12:57:38;;;;;;;11.87;7.57;;;;;;;2.38;92.17;99816.09;6057735;29;20300;-77
2022/11/22 13:01:07;;;;;;;14.70;9.67;;;;;;;2.46;92.08;99815.56;6049453;29;20269;-75
2022/11/22 13:04:38;;;;;;;15.07;9.23;;;;;;;2.35;92.15;99818.16;6051680;29;20235;-75
2022/11/22 13:08:09;;;;;;;10.97;7.80;;;;;;;2.64;92.16;99805.38;6044262;29;20581;-85
2022/11/22 13:11:34;;;;;;;11.50;7.67;;;;;;;2.68;91.57;99801.53;6072099;29;20419;-78
2022/11/22 13:14:58;;;;;;;11.73;8.17;;;;;;;2.48;91.49;99813.66;6061415;29;20307;-77
2022/11/22 13:18:30;;;;;;;13.87;7.93;;;;;;;2.51;91.91;99821.38;6056855;29;20256;-78
2022/11/22 13:22:07;;;;;;;12.40;8.43;;;;;;;2.67;91.48;99837.09;6068713;29;20327;-73
2022/11/22 13:25:51;;;;;;;13.40;8.47;;;;;;;2.52;91.73;99838.22;6062724;29;20225;-72
2022/11/22 13:29:21;;;;;;;17.40;9.20;;;;;;;2.47;92.01;99835.88;6075049;29;20276;-71
2022/11/22 13:32:46;;;;;;;8.97;8.07;;;;;;;2.32;92.71;99842.28;6055853;29;21734;-76
2022/11/22 13:36:43;;;;;;;11.60;8.63;;;;;;;2.32;92.95;99850.25;6055871;29;20233;-77
2022/11/22 13:40:23;;;;;;;12.07;9.17;;;;;;;2.24;93.13;99855.28;6061835;29;20264;-77
2022/11/22 13:43:54;;;;;;;13.10;8.97;;;;;;;2.28;93.34;99864.75;6062602;29;20764;-75
2022/11/22 13:47:36;;;;;;;19.53;9.60;;;;;;;2.34;93.17;99858.97;6062695;29;20233;-80
2022/11/22 13:51:03;;;;;;;13.07;8.83;;;;;;;2.37;92.98;99854.31;6063424;29;20237;-75
2022/11/22 13:55:02;;;;;;;14.90;9.83;;;;;;;2.38;92.90;99863.13;6063627;29;20251;-74
2022/11/22 13:58:51;;;;;;;17.83;8.97;;;;;;;2.47;92.96;99866.94;6042678;29;20232;-76
2022/11/22 14:02:22;;;;;;;13.13;8.13;;;;;;;2.45;92.73;99869.72;6058784;29;20289;-74
2022/11/22 14:05:47;;;;;;;14.77;10.80;;;;;;;2.37;92.50;99872.94;6049196;29;20579;-77
2022/11/22 14:09:25;;;;;;;12.63;9.60;;;;;;;2.49;92.30;99851.72;6041850;29;20240;-76
2022/11/22 14:13:15;;;;;;;15.20;10.13;;;;;;;2.51;92.40;99863.09;6042977;29;20241;-76
2022/11/22 14:16:50;;;;;;;13.37;8.37;;;;;;;2.61;91.98;99859.66;6059252;29;20238;-76
2022/11/22 14:20:37;;;;;;;16.03;10.10;;;;;;;2.49;92.12;99857.03;6038714;29;20229;-73
2022/11/22 14:24:06;;;;;;;17.77;10.07;;;;;;;2.50;92.34;99859.59;6043575;29;20565;-72
2022/11/22 14:27:37;;;;;;;11.57;8.37;;;;;;;2.54;92.29;99853.09;6053450;29;20248;-74
2022/11/22 14:30:59;;;;;;;13.73;10.27;;;;;;;2.57;91.93;99852.00;6048220;29;20238;-79
2022/11/22 14:34:22;;;;;;;15.70;9.53;;;;;;;2.60;91.39;99865.09;6065844;29;20252;-78
2022/11/22 14:37:47;;;;;;;11.97;8.83;;;;;;;2.37;92.37;99866.75;6051934;29;20233;-79
2022/11/22 14:41:30;;;;;;;19.40;9.30;;;;;;;2.41;92.75;99868.22;6064726;29;20801;-74
2022/11/22 14:44:53;;;;;;;13.00;8.23;;;;;;;2.37;93.02;99861.44;6066476;29;20236;-75
2022/11/22 14:48:19;;;;;;;12.63;8.93;;;;;;;2.48;92.63;99858.00;6050003;29;20324;-74
2022/11/22 14:51:40;;;;;;;15.53;9.57;;;;;;;2.47;92.61;99869.59;6067457;29;20246;-72
2022/11/22 14:55:07;;;;;;;13.03;9.03;;;;;;;2.54;92.45;99885.00;6051367;29;20670;-72
2022/11/22 14:58:30;;;;;;;18.07;10.20;;;;;;;2.23;93.08;99886.31;6065566;29;20241;-88
2022/11/22 15:02:17;;;;;;;17.57;11.43;;;;;;;2.35;93.24;99882.81;6060552;29;20229;-78
2022/11/22 15:05:55;;;;;;;13.53;9.40;;;;;;;2.36;92.78;99876.53;6053899;29;20269;-80
2022/11/22 15:09:48;;;;;;;14.90;9.10;;;;;;;2.25;92.78;99883.59;6051516;29;20237;-78
2022/11/22 15:13:33;;;;;;;16.63;8.93;;;;;;;2.33;92.62;99882.09;6024381;29;21040;-78
2022/11/22 15:16:57;;;;;;;9.90;7.80;;;;;;;2.28;92.88;99883.34;6064083;29;20233;-79
2022/11/22 15:20:31;;;;;;;16.83;10.03;;;;;;;2.22;92.68;99881.13;6063243;29;20233;-76
2022/11/22 15:23:53;;;;;;;15.17;9.67;;;;;;;2.21;92.84;99869.63;6058338;29;20259;-77
2022/11/22 15:27:25;;;;;;;18.17;11.23;;;;;;;2.30;92.35;99878.78;6066319;29;25365;-76
2022/11/22 15:30:46;;;;;;;15.33;10.03;;;;;;;2.16;92.85;99881.56;6078210;29;20237;-78
2022/11/22 15:34:19;;;;;;;21.50;11.63;;;;;;;2.19;92.84;99889.34;6061682;29;20236;-78
2022/11/22 15:37:51;;;;;;;14.57;9.67;;;;;;;2.38;92.45;99879.94;6060645;29;20572;-77
2022/11/22 15:41:17;;;;;;;9.57;8.33;;;;;;;2.35;91.79;99887.28;6060526;29;20236;-76
2022/11/22 15:44:39;;;;;;;14.67;8.97;;;;;;;2.24;92.40;99904.00;6067962;29;20236;-78
2022/11/22 15:48:02;;;;;;;17.57;10.90;;;;;;;2.13;92.56;99911.00;6056936;29;20468;-77
2022/11/22 15:51:27;;;;;;;17.23;9.83;;;;;;;2.16;92.66;99901.03;6072002;29;20233;-76
2022/11/22 15:54:53;;;;;;;14.63;9.70;;;;;;;2.26;92.26;99907.38;6062318;29;20236;-77
2022/11/22 15:58:14;;;;;;;12.47;9.77;;;;;;;2.16;92.04;99905.47;6054675;29;20240;-76
2022/11/22 16:01:38;;;;;;;12.67;8.13;;;;;;;2.19;92.17;99908.75;6071038;29;20320;-75
2022/11/22 16:05:01;;;;;;;20.87;8.53;;;;;;;2.26;91.88;99922.47;6059861;29;20579;-77
2022/11/22 16:08:23;;;;;;;11.93;8.10;;;;;;;2.09;92.03;99913.03;6054693;29;20236;-78
2022/11/22 16:11:44;;;;;;;15.30;9.60;;;;;;;2.08;91.96;99923.78;6057123;29;22560;-77
2022/11/22 16:15:27;;;;;;;14.00;8.83;;;;;;;2.01;92.33;99919.84;6058433;29;20261;-76
2022/11/22 16:18:49;;;;;;;17.83;10.33;;;;;;;2.07;92.22;99922.91;6070395;29;20280;-79
2022/11/22 16:22:28;;;;;;;15.73;10.23;;;;;;;2.05;92.22;99916.84;6058652;29;20699;-79
2022/11/22 16:25:54;;;;;;;14.90;9.77;;;;;;;2.14;91.61;99926.88;6073473;29;20252;-79
2022/11/22 16:29:27;;;;;;;18.33;11.07;;;;;;;2.23;91.46;99931.53;6060515;29;20225;-79
2022/11/22 16:32:52;;;;;;;16.30;11.47;;;;;;;2.05;91.93;99922.19;6054638;29;20320;-82